ESSA/ARN METAR and TAF weather

Enter ICAO airport designator
Station Type Date Time Source
ESSA METAR 2018/01/16 09:20 UTC NOAA

ESSA 160920Z 15022G33KT 9999 OVC017 01/M03 Q0992 R01L/19//64 R01R/19//75 R08/19//67 BECMG 4000 -SN VV006


Station Type Date Time Source
ESSA Decoded METAR 2018/01/16 09:20 UTC NOAA

Stockholm / Arlanda, Sweden (ESSA) 59-39N 017-57E 61M
Jan 16, 2018 - 04:20 AM EST / 2018.01.16 0920 UTC
Wind: from the SSE (150 degrees) at 25 MPH (22 KT) gusting to 38 MPH (33 KT):0
Visibility: greater than 7 mile(s):0
Sky conditions: overcast
Temperature: 33 F (1 C)
Windchill: 19 F (-7 C):1
Dew Point: 26 F (-3 C)
Relative Humidity: 74%
Pressure (altimeter): 29.29 in. Hg (0992 hPa)
ob: ESSA 160920Z 15022G33KT 9999 OVC017 01/M03 Q0992 R01L/19//64 R01R/19//75 R08/19//67 BECMG 4000 -SN VV006
cycle: 9

Station Type Date Time Source
ESSA TAF 2018/01/16 06:33 UTC NOAA

TAF ESSA 160530Z 1606/1706 17020G32KT 9999 OVC020
BECMG 1608/1610 4000 -SN VV012
TEMPO 1610/1706 1200 SN VV006


Example: see airport list